createdAt,value
2018-03-15T00:02:01.350Z,23.20
2018-03-15T00:04:35.362Z,21.83
2018-03-15T00:07:04.437Z,23.13
2018-03-15T00:09:32.774Z,23.60
2018-03-15T00:12:01.107Z,22.67
2018-03-15T00:14:29.490Z,22.80
2018-03-15T00:16:57.795Z,24.60
2018-03-15T00:19:26.890Z,21.83
2018-03-15T00:21:55.989Z,24.33
2018-03-15T00:24:25.056Z,22.63
2018-03-15T00:26:53.439Z,21.87
2018-03-15T00:29:21.748Z,22.80
2018-03-15T00:31:50.845Z,23.37
2018-03-15T00:34:19.926Z,21.10
2018-03-15T00:36:48.229Z,23.20
2018-03-15T00:39:17.318Z,23.00
2018-03-15T00:41:46.416Z,22.23
2018-03-15T00:44:15.508Z,22.10
2018-03-15T00:46:44.583Z,22.10
2018-03-15T00:49:12.892Z,21.83
2018-03-15T00:51:41.990Z,24.27
2018-03-15T00:54:11.065Z,23.23
2018-03-15T00:56:39.452Z,22.47
2018-03-15T00:59:07.831Z,20.67
2018-03-15T01:01:36.130Z,21.93
2018-03-15T01:04:05.214Z,22.47
2018-03-15T01:06:33.532Z,22.33
2018-03-15T01:09:01.831Z,21.93
2018-03-15T01:11:30.132Z,21.77
2018-03-15T01:13:58.464Z,23.77
2018-03-15T01:16:26.782Z,21.73
2018-03-15T01:18:55.126Z,23.60
2018-03-15T01:21:23.450Z,22.40
2018-03-15T01:23:51.756Z,23.10
2018-03-15T01:26:20.090Z,21.37
2018-03-15T01:28:48.413Z,22.87
2018-03-15T01:31:16.698Z,23.03
2018-03-15T01:33:45.002Z,24.90
2018-03-15T01:36:14.108Z,22.67
2018-03-15T01:38:43.390Z,26.87
2018-03-15T01:41:12.022Z,23.57
2018-03-15T01:43:40.483Z,27.07
2018-03-15T01:46:09.070Z,24.17
2018-03-15T01:48:37.452Z,23.07
2018-03-15T01:51:05.774Z,22.40
2018-03-15T01:53:34.307Z,21.60
2018-03-15T01:56:02.832Z,22.60
2018-03-15T01:58:31.148Z,24.23
2018-03-15T02:00:59.493Z,21.47
2018-03-15T02:03:27.774Z,20.20
2018-03-15T02:05:56.096Z,23.00
2018-03-15T02:08:24.422Z,20.60
2018-03-15T02:10:52.746Z,20.20
2018-03-15T02:13:21.907Z,21.10
2018-03-15T02:15:50.260Z,22.13
2018-03-15T02:18:19.451Z,21.00
2018-03-15T02:20:47.764Z,21.43
2018-03-15T02:23:16.068Z,24.30
2018-03-15T02:25:44.426Z,22.97
2018-03-15T02:28:12.738Z,22.83
2018-03-15T02:30:41.873Z,24.37
2018-03-15T02:33:10.963Z,24.30
2018-03-15T02:35:40.065Z,24.43
2018-03-15T02:38:09.146Z,21.70
2018-03-15T02:40:37.538Z,19.97
2018-03-15T02:43:05.846Z,22.37
2018-03-15T02:45:34.911Z,23.67
2018-03-15T02:48:04.748Z,23.90
2018-03-15T02:50:33.848Z,23.23
2018-03-15T02:53:02.942Z,22.73
2018-03-15T02:55:32.016Z,21.57
2018-03-15T02:58:00.321Z,21.87
2018-03-15T03:00:29.402Z,21.87
2018-03-15T03:02:57.722Z,19.90
2018-03-15T03:05:26.041Z,21.30
2018-03-15T03:07:54.362Z,22.93
2018-03-15T03:10:23.454Z,20.60
2018-03-15T03:12:52.544Z,21.77
2018-03-15T03:15:20.846Z,22.80
2018-03-15T03:17:49.920Z,20.83
2018-03-15T03:20:18.221Z,23.17
2018-03-15T03:22:47.304Z,21.20
2018-03-15T03:25:15.614Z,23.30
2018-03-15T03:27:43.930Z,21.97
2018-03-15T03:30:12.335Z,22.33
2018-03-15T03:32:40.642Z,23.60
2018-03-15T03:35:09.724Z,22.03
2018-03-15T03:37:38.806Z,20.77
2018-03-15T03:40:07.136Z,22.67
2018-03-15T03:42:35.464Z,23.10
2018-03-15T03:45:03.768Z,20.80
2018-03-15T03:47:32.842Z,23.53
2018-03-15T03:50:01.154Z,23.23
2018-03-15T03:52:30.254Z,22.10
2018-03-15T03:54:59.430Z,22.90
2018-03-15T03:57:27.728Z,18.67
2018-03-15T03:59:56.050Z,21.23
2018-03-15T04:02:24.354Z,20.27
2018-03-15T04:04:52.666Z,19.97
2018-03-15T04:07:20.976Z,22.33
2018-03-15T04:09:49.296Z,20.37
2018-03-15T04:12:17.603Z,22.77
2018-03-15T04:14:45.921Z,21.10
2018-03-15T04:17:14.240Z,21.33
2018-03-15T04:19:42.552Z,21.17
2018-03-15T04:22:11.616Z,22.83
2018-03-15T04:24:39.944Z,20.90
2018-03-15T04:27:09.003Z,21.70
2018-03-15T04:29:37.402Z,21.03
2018-03-15T04:32:06.476Z,21.03
2018-03-15T04:34:34.796Z,21.27
2018-03-15T04:37:03.858Z,21.67
2018-03-15T04:39:32.172Z,23.13
2018-03-15T04:42:01.244Z,22.40
2018-03-15T04:44:29.552Z,21.20
2018-03-15T04:46:58.620Z,21.83
2018-03-15T04:49:26.916Z,21.67
2018-03-15T04:51:55.230Z,23.40
2018-03-15T04:54:23.555Z,22.37
2018-03-15T04:56:51.908Z,21.77
2018-03-15T04:59:20.953Z,21.37
2018-03-15T05:01:49.295Z,22.13
2018-03-15T05:04:17.972Z,21.63
2018-03-15T05:06:46.559Z,22.50
2018-03-15T05:09:14.864Z,23.03
2018-03-15T05:11:43.158Z,20.80
2018-03-15T05:14:11.471Z,21.50
2018-03-15T05:16:40.534Z,23.07
2018-03-15T05:19:08.856Z,20.83
2018-03-15T05:21:37.929Z,21.87
2018-03-15T05:24:06.255Z,20.97
2018-03-15T05:26:34.557Z,23.63
2018-03-15T05:29:02.874Z,22.50
2018-03-15T05:31:31.950Z,21.57
2018-03-15T05:34:00.248Z,22.73
2018-03-15T05:36:28.559Z,22.50
2018-03-15T05:38:56.888Z,21.10
2018-03-15T05:41:25.204Z,20.27
2018-03-15T05:43:54.297Z,21.33
2018-03-15T05:46:23.363Z,21.73
2018-03-15T05:48:51.682Z,21.63
2018-03-15T05:51:20.737Z,22.40
2018-03-15T05:53:49.065Z,22.17
2018-03-15T05:56:18.136Z,21.40
2018-03-15T05:58:46.453Z,21.20
2018-03-15T06:01:14.993Z,21.93
2018-03-15T06:03:43.300Z,21.60
2018-03-15T06:06:12.377Z,21.77
2018-03-15T06:08:40.689Z,20.63
2018-03-15T06:11:09.764Z,20.33
2018-03-15T06:13:38.062Z,19.27
2018-03-15T06:16:07.119Z,19.40
2018-03-15T06:18:35.422Z,20.80
2018-03-15T06:21:03.723Z,18.23
2018-03-15T06:23:32.799Z,19.07
2018-03-15T06:26:01.115Z,18.47
2018-03-15T06:28:29.450Z,19.23
2018-03-15T06:30:57.785Z,19.47
2018-03-15T06:33:26.143Z,19.47
2018-03-15T06:35:54.449Z,17.10
2018-03-15T06:38:22.745Z,18.67
2018-03-15T06:40:51.158Z,18.30
2018-03-15T06:43:19.715Z,19.20
2018-03-15T06:45:48.092Z,17.40
2018-03-15T06:48:16.461Z,19.03
2018-03-15T06:50:44.805Z,18.67
2018-03-15T06:53:14.003Z,17.80
2018-03-15T06:55:43.081Z,18.40
2018-03-15T06:58:11.447Z,19.17
2018-03-15T07:00:40.008Z,19.30
2018-03-15T07:03:08.301Z,18.50
2018-03-15T07:05:36.616Z,18.63
2018-03-15T07:08:05.010Z,15.57
2018-03-15T07:10:34.168Z,16.77
2018-03-15T07:13:03.215Z,18.70
2018-03-15T07:15:32.290Z,17.33
2018-03-15T07:18:00.593Z,16.67
2018-03-15T07:20:29.755Z,17.60
2018-03-15T07:22:58.067Z,17.73
2018-03-15T07:25:27.864Z,15.63
2018-03-15T07:27:56.168Z,17.20
2018-03-15T07:30:24.499Z,17.57
2018-03-15T07:32:52.803Z,16.67
2018-03-15T07:35:21.119Z,17.40
2018-03-15T07:37:50.188Z,17.10
2018-03-15T07:40:18.497Z,16.10
2018-03-15T07:42:47.559Z,16.47
2018-03-15T07:45:15.878Z,18.10
2018-03-15T07:47:44.959Z,16.53
2018-03-15T07:50:13.288Z,16.50
2018-03-15T07:52:41.606Z,20.20
2018-03-15T07:55:09.927Z,16.83
2018-03-15T07:57:38.727Z,18.40
2018-03-15T08:00:10.691Z,17.10
2018-03-15T08:02:39.336Z,16.07
2018-03-15T08:05:07.773Z,18.13
2018-03-15T08:07:36.067Z,17.00
2018-03-15T08:10:04.361Z,18.17
2018-03-15T08:12:32.719Z,18.57
2018-03-15T08:15:01.300Z,17.53
2018-03-15T08:17:30.455Z,16.93
2018-03-15T08:19:58.759Z,15.20
2018-03-15T08:22:27.839Z,16.03
2018-03-15T08:24:56.931Z,17.70
2018-03-15T08:27:25.321Z,16.47
2018-03-15T08:29:53.630Z,15.50
2018-03-15T08:32:22.113Z,17.10
2018-03-15T08:34:50.449Z,15.47
2018-03-15T08:37:18.799Z,16.80
2018-03-15T08:39:47.095Z,15.27
2018-03-15T08:42:15.405Z,16.40
2018-03-15T08:44:43.725Z,16.23
2018-03-15T08:47:12.157Z,17.20
2018-03-15T08:49:40.462Z,16.03
2018-03-15T08:52:09.541Z,14.70
2018-03-15T08:54:37.853Z,15.10
2018-03-15T08:57:06.201Z,14.33
2018-03-15T08:59:34.525Z,16.43
2018-03-15T09:02:02.841Z,14.90
2018-03-15T09:04:31.177Z,15.23
2018-03-15T09:07:00.440Z,15.33
2018-03-15T09:09:28.592Z,14.60
2018-03-15T09:11:56.944Z,15.70
2018-03-15T09:14:25.281Z,15.07
2018-03-15T09:16:53.658Z,16.20
2018-03-15T09:19:21.963Z,15.13
2018-03-15T09:21:50.903Z,15.87
2018-03-15T09:24:19.203Z,14.23
2018-03-15T09:26:47.519Z,16.33
2018-03-15T09:29:15.831Z,14.47
2018-03-15T09:31:44.137Z,14.73
2018-03-15T09:34:12.473Z,15.47
2018-03-15T09:36:40.809Z,16.70
2018-03-15T09:39:09.125Z,15.83
2018-03-15T09:41:38.234Z,14.53
2018-03-15T09:44:06.561Z,14.67
2018-03-15T09:46:34.903Z,15.40
2018-03-15T09:49:03.233Z,14.87
2018-03-15T09:51:31.553Z,13.83
2018-03-15T09:54:00.814Z,15.60
2018-03-15T09:56:29.230Z,15.10
2018-03-15T09:58:58.323Z,15.50
2018-03-15T10:01:27.450Z,15.77
2018-03-15T10:03:55.826Z,15.47
2018-03-15T10:06:24.153Z,14.27
2018-03-15T10:08:52.488Z,14.23
2018-03-15T10:11:21.565Z,14.50
2018-03-15T10:13:50.647Z,15.47
2018-03-15T10:16:19.088Z,15.50
2018-03-15T10:18:47.406Z,14.90
2018-03-15T10:21:15.728Z,15.77
2018-03-15T10:23:44.847Z,14.87
2018-03-15T10:26:13.173Z,14.67
2018-03-15T10:28:41.501Z,13.80
2018-03-15T10:31:09.949Z,14.93
2018-03-15T10:33:39.039Z,15.23
2018-03-15T10:36:08.129Z,14.93
2018-03-15T10:38:36.446Z,14.60
2018-03-15T10:41:04.793Z,14.03
2018-03-15T10:43:33.931Z,15.40
2018-03-15T10:46:02.281Z,14.77
2018-03-15T10:48:30.621Z,14.07
2018-03-15T10:50:58.933Z,15.13
2018-03-15T10:53:27.343Z,14.73
2018-03-15T10:55:56.440Z,14.30
2018-03-15T10:58:25.567Z,14.53
2018-03-15T11:00:59.516Z,13.80
2018-03-15T11:06:37.524Z,14.03
2018-03-15T11:09:05.906Z,14.17
2018-03-15T11:11:34.229Z,14.40
2018-03-15T11:14:03.305Z,15.50
2018-03-15T11:16:31.639Z,14.60
2018-03-15T11:18:59.959Z,15.80
2018-03-15T11:21:28.270Z,14.20
2018-03-15T11:23:57.525Z,15.00
2018-03-15T11:26:25.803Z,15.57
2018-03-15T11:28:54.134Z,15.93
2018-03-15T11:31:23.225Z,15.53
2018-03-15T11:33:52.346Z,16.13
2018-03-15T11:36:20.655Z,14.70
2018-03-15T11:38:48.973Z,15.27
2018-03-15T11:41:18.066Z,15.47
2018-03-15T11:43:46.469Z,14.60
2018-03-15T11:46:14.751Z,15.60
2018-03-15T11:48:43.857Z,15.30
2018-03-15T11:51:12.214Z,15.30
2018-03-15T11:53:40.503Z,16.60
2018-03-15T11:56:09.617Z,15.67
2018-03-15T11:58:38.694Z,15.43
2018-03-15T12:01:07.807Z,16.20
2018-03-15T12:03:36.944Z,15.60
2018-03-15T12:06:05.283Z,16.73
2018-03-15T12:08:34.528Z,17.00
2018-03-15T12:11:03.341Z,16.87
2018-03-15T12:13:31.649Z,15.87
2018-03-15T12:16:00.016Z,17.03
2018-03-15T12:18:28.331Z,15.90
2018-03-15T12:20:57.436Z,16.27
2018-03-15T12:23:26.526Z,15.87
2018-03-15T12:25:54.849Z,16.90
2018-03-15T12:28:23.174Z,16.70
2018-03-15T12:30:52.315Z,16.13
2018-03-15T12:33:21.843Z,16.00
2018-03-15T12:35:50.176Z,16.90
2018-03-15T12:38:18.504Z,16.33
2018-03-15T12:40:47.619Z,16.40
2018-03-15T12:43:16.383Z,15.40
2018-03-15T12:45:44.716Z,16.87
2018-03-15T12:48:13.036Z,16.07
2018-03-15T12:50:41.347Z,15.73
2018-03-15T12:53:09.665Z,16.77
2018-03-15T12:55:38.195Z,15.40
2018-03-15T12:58:06.502Z,16.27
2018-03-15T13:00:34.819Z,15.27
2018-03-15T13:03:03.124Z,15.53
2018-03-15T13:05:31.463Z,16.17
2018-03-15T13:07:59.771Z,14.80
2018-03-15T13:10:28.838Z,16.70
2018-03-15T13:12:57.155Z,15.20
2018-03-15T13:15:26.240Z,16.17
2018-03-15T13:17:55.314Z,16.07
2018-03-15T13:22:58.402Z,15.87
2018-03-15T13:25:26.714Z,15.23
2018-03-15T13:27:55.057Z,14.90
2018-03-15T13:30:23.460Z,15.77
2018-03-15T13:32:51.754Z,16.10
2018-03-15T13:35:20.092Z,16.40
2018-03-15T13:37:48.421Z,15.40
2018-03-15T13:40:16.742Z,15.73
2018-03-15T13:42:45.043Z,15.87
2018-03-15T13:45:13.357Z,14.80
2018-03-15T13:47:41.686Z,14.97
2018-03-15T13:50:09.994Z,16.33
2018-03-15T13:52:38.316Z,15.00
2018-03-15T13:55:06.637Z,15.60
2018-03-15T13:57:35.128Z,16.17
2018-03-15T14:00:04.198Z,15.37
2018-03-15T14:02:35.630Z,15.37
2018-03-15T14:05:04.072Z,14.10
2018-03-15T14:07:32.380Z,15.67
2018-03-15T14:10:00.747Z,16.30
2018-03-15T14:12:29.084Z,16.30
2018-03-15T14:14:57.401Z,15.30
2018-03-15T14:17:25.794Z,15.70
2018-03-15T14:19:54.138Z,14.57
2018-03-15T14:22:22.457Z,15.27
2018-03-15T14:24:50.767Z,14.90
2018-03-15T14:27:19.081Z,15.67
2018-03-15T14:29:50.268Z,16.00
2018-03-15T14:32:18.936Z,17.20
2018-03-15T14:34:47.290Z,16.33
2018-03-15T14:37:15.598Z,14.77
2018-03-15T14:39:43.916Z,16.13
2018-03-15T14:42:12.237Z,16.23
2018-03-15T14:44:40.552Z,15.40
2018-03-15T14:47:08.858Z,15.30
2018-03-15T14:49:37.189Z,15.70
2018-03-15T14:52:05.516Z,15.87
2018-03-15T14:54:33.850Z,15.43
2018-03-15T14:57:02.161Z,14.77
2018-03-15T14:59:30.507Z,15.17
2018-03-15T15:01:58.843Z,16.00
2018-03-15T15:04:27.149Z,15.17
2018-03-15T15:06:56.254Z,15.90
2018-03-15T15:09:25.350Z,15.27
2018-03-15T15:11:54.458Z,14.83
2018-03-15T15:14:23.541Z,15.47
2018-03-15T15:16:52.658Z,16.00
2018-03-15T15:19:20.982Z,15.30
2018-03-15T15:21:49.304Z,15.70
2018-03-15T15:24:18.412Z,14.60
2018-03-15T15:26:47.496Z,16.87
2018-03-15T15:29:16.760Z,17.70
2018-03-15T15:31:45.086Z,18.83
2018-03-15T15:34:14.219Z,18.83
2018-03-15T15:36:42.542Z,15.90
2018-03-15T15:39:10.960Z,15.80
2018-03-15T15:41:40.056Z,17.77
2018-03-15T15:44:09.202Z,16.10
2018-03-15T15:46:37.506Z,17.50
2018-03-15T15:49:05.980Z,16.97
2018-03-15T15:51:34.288Z,14.83
2018-03-15T15:54:03.364Z,17.30
2018-03-15T15:56:31.798Z,15.90
2018-03-15T15:59:00.106Z,16.03
2018-03-15T16:01:28.448Z,15.60
2018-03-15T16:03:56.997Z,16.63
2018-03-15T16:06:25.297Z,18.00
2018-03-15T16:08:53.600Z,16.60
2018-03-15T16:11:22.686Z,16.53
2018-03-15T16:13:51.762Z,16.27
2018-03-15T16:16:20.096Z,18.43
2018-03-15T16:18:48.476Z,15.40
2018-03-15T16:21:16.797Z,17.33
2018-03-15T16:23:45.179Z,15.70
2018-03-15T16:26:13.509Z,15.70
2018-03-15T16:28:41.834Z,15.50
2018-03-15T16:31:10.193Z,15.17
2018-03-15T16:33:38.556Z,15.30
2018-03-15T16:36:06.875Z,15.53
2018-03-15T16:38:35.441Z,15.07
2018-03-15T16:41:03.794Z,14.63
2018-03-15T16:43:32.891Z,15.37
2018-03-15T16:46:02.267Z,16.23
2018-03-15T16:48:30.703Z,17.70
2018-03-15T16:50:59.089Z,16.13
2018-03-15T16:53:27.441Z,15.53
2018-03-15T16:55:56.527Z,15.33
2018-03-15T16:58:25.688Z,17.00
2018-03-15T17:00:54.009Z,16.97
2018-03-15T17:03:22.352Z,16.07
2018-03-15T17:05:50.672Z,14.67
2018-03-15T17:08:19.762Z,16.20
2018-03-15T17:10:48.065Z,15.10
2018-03-15T17:13:17.143Z,15.70
2018-03-15T17:15:45.477Z,16.17
2018-03-15T17:18:13.853Z,17.17
2018-03-15T17:20:42.205Z,16.07
2018-03-15T17:23:11.330Z,16.03
2018-03-15T17:25:39.689Z,16.83
2018-03-15T17:28:08.797Z,16.93
2018-03-15T17:30:37.403Z,17.97
2018-03-15T17:33:05.710Z,17.50
2018-03-15T17:35:34.036Z,17.50
2018-03-15T17:38:03.157Z,17.43
2018-03-15T17:40:31.773Z,17.57
2018-03-15T17:43:00.125Z,17.43
2018-03-15T17:45:28.463Z,17.20
2018-03-15T17:47:57.561Z,18.00
2018-03-15T17:50:25.889Z,17.80
2018-03-15T17:52:54.210Z,18.13
2018-03-15T17:55:22.755Z,17.70
2018-03-15T17:57:51.175Z,19.33
2018-03-15T18:00:19.515Z,17.73
2018-03-15T18:02:47.848Z,20.13
2018-03-15T18:05:16.247Z,18.50
2018-03-15T18:07:44.588Z,18.30
2018-03-15T18:10:12.943Z,19.53
2018-03-15T18:12:41.243Z,18.60
2018-03-15T18:15:09.855Z,17.77
2018-03-15T18:17:38.251Z,18.93
2018-03-15T18:20:07.691Z,22.42
2018-03-15T18:22:36.096Z,21.52
2018-03-15T18:25:04.444Z,18.37
2018-03-15T18:27:32.790Z,18.20
2018-03-15T18:30:01.228Z,18.50
2018-03-15T18:32:30.540Z,18.90
2018-03-15T18:34:58.961Z,19.33
2018-03-15T18:37:28.923Z,17.50
2018-03-15T18:39:58.049Z,18.03
2018-03-15T18:42:26.376Z,17.87
2018-03-15T18:44:54.748Z,18.53
2018-03-15T18:47:23.085Z,18.47
2018-03-15T18:49:51.456Z,18.93
2018-03-15T18:52:19.791Z,18.57
2018-03-15T18:54:48.135Z,19.87
2018-03-15T18:57:16.621Z,18.10
2018-03-15T18:59:45.095Z,19.73
2018-03-15T19:02:13.497Z,19.40
2018-03-15T19:04:41.844Z,20.77
2018-03-15T19:07:10.948Z,20.90
2018-03-15T19:09:39.290Z,21.13
2018-03-15T19:12:07.676Z,21.30
2018-03-15T19:14:36.820Z,21.53
2018-03-15T19:17:05.307Z,21.23
2018-03-15T19:19:33.747Z,22.10
2018-03-15T19:22:04.661Z,20.80
2018-03-15T19:24:33.197Z,20.63
2018-03-15T19:27:02.889Z,21.70
2018-03-15T19:29:34.291Z,23.60
2018-03-15T19:32:03.621Z,22.40
2018-03-15T19:34:32.118Z,23.80
2018-03-15T19:37:00.527Z,23.07
2018-03-15T19:39:29.727Z,23.20
2018-03-15T19:41:58.873Z,23.40
2018-03-15T19:44:27.211Z,22.90
2018-03-15T19:46:56.347Z,24.30
2018-03-15T19:49:24.762Z,24.70
2018-03-15T19:51:53.251Z,72.10
2018-03-15T19:54:21.664Z,47.27
2018-03-15T19:56:50.887Z,50.77
2018-03-15T19:59:19.535Z,24.03
2018-03-15T20:01:47.889Z,28.90
2018-03-15T20:04:16.231Z,26.80
2018-03-15T20:06:44.585Z,27.63
2018-03-15T20:09:13.712Z,27.10
2018-03-15T20:11:42.110Z,26.83
2018-03-15T20:14:11.217Z,26.70
2018-03-15T20:16:40.321Z,28.57
2018-03-15T20:19:14.083Z,28.43
2018-03-15T20:21:43.492Z,28.93
2018-03-15T20:24:18.249Z,29.83
2018-03-15T20:26:47.283Z,29.30
2018-03-15T20:29:15.829Z,31.80
2018-03-15T20:31:44.179Z,40.83
2018-03-15T20:34:13.417Z,31.10
2018-03-15T20:36:41.851Z,31.70
2018-03-15T20:39:15.833Z,31.37
2018-03-15T20:41:44.250Z,30.77
2018-03-15T20:44:13.651Z,32.23
2018-03-15T20:49:48.597Z,31.17
2018-03-15T20:52:17.681Z,31.63
2018-03-15T20:54:45.988Z,31.77
2018-03-15T20:57:15.091Z,33.00
2018-03-15T20:59:43.487Z,32.90
2018-03-15T21:02:11.908Z,35.17
2018-03-15T21:04:40.245Z,36.30
2018-03-15T21:07:08.603Z,34.43
2018-03-15T21:09:37.700Z,38.33
2018-03-15T21:12:06.762Z,38.03
2018-03-15T21:14:35.129Z,36.97
2018-03-15T21:17:03.498Z,41.80
2018-03-15T21:19:31.922Z,41.27
2018-03-15T21:22:00.263Z,37.73
2018-03-15T21:24:28.596Z,39.03
2018-03-15T21:26:57.218Z,41.10
2018-03-15T21:29:25.513Z,39.17
2018-03-15T21:31:53.840Z,43.60
2018-03-15T21:34:22.182Z,44.10
2018-03-15T21:36:50.594Z,44.83
2018-03-15T21:39:18.932Z,43.23
2018-03-15T21:41:47.451Z,43.00
2018-03-15T21:44:15.819Z,42.30
2018-03-15T21:46:44.160Z,44.00
2018-03-15T21:49:13.257Z,46.37
2018-03-15T21:51:42.382Z,44.57
2018-03-15T21:54:10.682Z,47.53
2018-03-15T21:56:39.065Z,44.27
2018-03-15T21:59:07.404Z,46.37
2018-03-15T22:01:35.720Z,46.93
2018-03-15T22:04:04.106Z,47.77
2018-03-15T22:06:32.420Z,45.97
2018-03-15T22:09:01.515Z,48.87
2018-03-15T22:11:29.804Z,47.47
2018-03-15T22:13:59.018Z,48.47
2018-03-15T22:16:28.092Z,49.40
2018-03-15T22:18:57.179Z,52.30
2018-03-15T22:21:25.493Z,52.90
2018-03-15T22:23:54.668Z,50.10
2018-03-15T22:26:22.979Z,51.73
2018-03-15T22:28:52.041Z,52.27
2018-03-15T22:31:20.365Z,52.60
2018-03-15T22:33:49.517Z,54.07
2018-03-15T22:36:17.917Z,53.57
2018-03-15T22:38:46.228Z,56.80
2018-03-15T22:41:14.535Z,56.60
2018-03-15T22:43:42.828Z,60.13
2018-03-15T22:46:12.529Z,56.67
2018-03-15T22:48:40.842Z,55.37
2018-03-15T22:51:09.160Z,55.00
2018-03-15T22:53:38.245Z,54.87
2018-03-15T22:56:07.300Z,57.57
2018-03-15T22:58:35.598Z,55.77
2018-03-15T23:01:04.521Z,59.83
2018-03-15T23:03:33.717Z,52.43
2018-03-15T23:06:02.049Z,61.03
2018-03-15T23:08:30.363Z,56.20
2018-03-15T23:10:58.681Z,56.77
2018-03-15T23:13:26.975Z,55.77
2018-03-15T23:15:55.292Z,54.90
2018-03-15T23:18:24.591Z,59.57
2018-03-15T23:20:52.914Z,61.27
2018-03-15T23:23:22.038Z,60.83
2018-03-15T23:25:50.417Z,58.03
2018-03-15T23:28:18.760Z,58.70
2018-03-15T23:30:47.825Z,60.17
2018-03-15T23:33:16.209Z,59.53
2018-03-15T23:35:44.619Z,59.17
2018-03-15T23:38:13.763Z,59.07
2018-03-15T23:40:42.071Z,63.87
2018-03-15T23:43:10.776Z,59.57
2018-03-15T23:45:41.032Z,56.77
2018-03-15T23:48:10.560Z,62.00
2018-03-15T23:50:38.991Z,62.10
2018-03-15T23:53:07.302Z,61.07
2018-03-15T23:55:36.391Z,61.40
2018-03-15T23:58:05.484Z,60.87
